Pine Bluff, Arkansas
Current Conditions -  °F | °C
As of 6:53 PM on Wednesday 22 Oct 2014 (Local Time) from KPBF Reporting Station
Clear Clear  
Wind Chill: 61°   Ceiling: Unl
Heat Index: 61°   Visibility: 10mi
Dew Point: 46°   Wind: 6mph
Humidity: 58%   Direction: 50°NE
Pressure: 30.14"   Gusts: NA
Location:  34.22°N, 92°W
Report Text: KPBF 222353Z AUTO 05005KT 10SM CLR 16/08 A3014 RMK AO2 SLP207 T01610078 10222 20161 56005
Loading
Personal Weather Stations






























Interactive Weather Map
Tropical Storm Tracking
New forecast layout! Learn more

10-Day Weather Forecast

Advertisements
Track Severe Weather on mobile